createdAt,value
2017-08-30T00:00:04.520Z,17.70
2017-08-30T00:03:05.627Z,17.60
2017-08-30T00:06:03.482Z,17.60
2017-08-30T00:09:00.835Z,17.50
2017-08-30T00:12:00.343Z,17.40
2017-08-30T00:14:58.196Z,17.40
2017-08-30T00:17:55.831Z,17.40
2017-08-30T00:20:53.480Z,17.30
2017-08-30T00:23:51.204Z,17.30
2017-08-30T00:26:51.307Z,17.40
2017-08-30T00:29:51.223Z,17.40
2017-08-30T00:32:53.875Z,17.40
2017-08-30T00:35:51.536Z,17.30
2017-08-30T00:38:49.395Z,17.30
2017-08-30T00:41:53.855Z,17.20
2017-08-30T00:44:51.395Z,17.20
2017-08-30T00:47:49.271Z,17.10
2017-08-30T00:50:49.809Z,17.10
2017-08-30T00:53:53.340Z,17.10
2017-08-30T00:56:51.804Z,17.20
2017-08-30T00:59:58.659Z,17.10
2017-08-30T01:03:02.324Z,17.00
2017-08-30T01:06:00.097Z,17.10
2017-08-30T01:09:10.679Z,17.10
2017-08-30T01:12:08.200Z,17.20
2017-08-30T01:15:05.801Z,17.20
2017-08-30T01:18:04.448Z,17.10
2017-08-30T01:21:05.051Z,17.00
2017-08-30T01:24:02.791Z,17.10
2017-08-30T01:27:03.432Z,17.00
2017-08-30T01:30:08.015Z,16.80
2017-08-30T01:33:05.952Z,16.80
2017-08-30T01:36:06.575Z,16.80
2017-08-30T01:39:04.032Z,16.70
2017-08-30T01:42:07.918Z,16.80
2017-08-30T01:45:05.451Z,16.70
2017-08-30T01:48:02.884Z,16.60
2017-08-30T01:51:01.324Z,16.60
2017-08-30T01:54:08.934Z,16.60
2017-08-30T01:57:19.776Z,16.60
2017-08-30T02:00:18.651Z,16.60
2017-08-30T02:03:16.100Z,16.60
2017-08-30T02:06:13.499Z,16.60
2017-08-30T02:09:14.165Z,16.50
2017-08-30T02:12:11.867Z,16.50
2017-08-30T02:15:09.361Z,16.50
2017-08-30T02:18:14.048Z,16.50
2017-08-30T02:21:11.799Z,16.40
2017-08-30T02:24:09.164Z,16.20
2017-08-30T02:27:06.963Z,16.20
2017-08-30T02:30:04.617Z,16.30
2017-08-30T02:33:03.075Z,16.30
2017-08-30T02:36:01.740Z,16.40
2017-08-30T02:38:59.451Z,16.20
2017-08-30T02:41:58.052Z,16.30
2017-08-30T02:44:55.692Z,16.30
2017-08-30T02:47:59.128Z,16.20
2017-08-30T02:50:56.233Z,16.10
2017-08-30T02:54:06.308Z,16.00
2017-08-30T02:57:05.883Z,16.00
2017-08-30T03:00:03.494Z,16.00
2017-08-30T03:03:06.377Z,16.00
2017-08-30T03:06:04.068Z,16.00
2017-08-30T03:09:01.808Z,16.00
2017-08-30T03:11:59.280Z,15.90
2017-08-30T03:14:56.967Z,15.80
2017-08-30T03:17:55.784Z,15.80
2017-08-30T03:20:53.336Z,15.70
2017-08-30T03:23:54.840Z,15.80
2017-08-30T03:26:58.351Z,15.80
2017-08-30T03:29:56.196Z,15.80
2017-08-30T03:33:02.971Z,15.80
2017-08-30T03:36:01.427Z,15.70
2017-08-30T03:38:59.160Z,15.50
2017-08-30T03:42:09.761Z,15.50
2017-08-30T03:45:07.488Z,15.50
2017-08-30T03:48:05.251Z,15.40
2017-08-30T03:51:02.720Z,15.40
2017-08-30T03:54:04.652Z,15.40
2017-08-30T03:57:03.216Z,15.40
2017-08-30T04:00:00.779Z,15.60
2017-08-30T04:02:59.468Z,15.60
2017-08-30T04:06:00.038Z,15.60
2017-08-30T04:08:59.719Z,15.60
2017-08-30T04:11:57.448Z,15.50
2017-08-30T04:15:03.008Z,15.50
2017-08-30T04:18:02.616Z,15.60
2017-08-30T04:21:03.230Z,15.50
2017-08-30T04:24:14.972Z,15.60
2017-08-30T04:27:12.638Z,15.60
2017-08-30T04:30:10.280Z,15.50
2017-08-30T04:33:07.813Z,15.40
2017-08-30T04:36:05.501Z,15.40
2017-08-30T04:39:03.135Z,15.40
2017-08-30T04:42:01.748Z,15.40
2017-08-30T04:44:59.238Z,15.40
2017-08-30T04:47:56.865Z,15.40
2017-08-30T04:50:59.720Z,15.40
2017-08-30T04:53:57.376Z,15.40
2017-08-30T04:56:55.939Z,15.40
2017-08-30T04:59:54.478Z,15.40
2017-08-30T05:02:56.115Z,15.40
2017-08-30T05:05:54.730Z,15.50
2017-08-30T05:08:52.428Z,15.60
2017-08-30T05:11:50.007Z,15.70
2017-08-30T05:14:49.656Z,15.80
2017-08-30T05:17:48.144Z,15.90
2017-08-30T05:20:45.714Z,16.00
2017-08-30T05:23:44.448Z,16.20
2017-08-30T05:26:42.064Z,16.30
2017-08-30T05:29:41.751Z,16.30
2017-08-30T05:32:41.656Z,16.40
2017-08-30T05:35:41.241Z,16.50
2017-08-30T05:38:38.891Z,16.60
2017-08-30T05:41:36.771Z,16.70
2017-08-30T05:44:34.475Z,16.80
2017-08-30T05:47:32.044Z,16.80
2017-08-30T05:50:30.925Z,16.90
2017-08-30T05:53:28.323Z,17.00
2017-08-30T05:56:25.901Z,17.10
2017-08-30T05:59:24.631Z,17.30
2017-08-30T06:02:22.408Z,17.40
2017-08-30T06:05:20.032Z,17.60
2017-08-30T06:08:17.670Z,17.80
2017-08-30T06:11:15.539Z,18.00
2017-08-30T06:14:15.760Z,18.30
2017-08-30T06:17:19.395Z,18.50
2017-08-30T06:20:18.298Z,18.80
2017-08-30T06:23:15.999Z,19.00
2017-08-30T06:26:16.640Z,19.20
2017-08-30T06:29:14.063Z,19.40
2017-08-30T06:32:11.811Z,19.60
2017-08-30T06:35:09.259Z,19.90
2017-08-30T06:38:06.699Z,20.10
2017-08-30T06:41:04.532Z,20.40
2017-08-30T06:44:02.029Z,20.70
2017-08-30T06:46:59.862Z,20.90
2017-08-30T06:50:01.660Z,21.10
2017-08-30T06:52:59.049Z,21.40
2017-08-30T06:55:56.668Z,21.60
2017-08-30T06:58:54.216Z,21.70
2017-08-30T07:01:51.571Z,21.90
2017-08-30T07:04:49.231Z,22.20
2017-08-30T07:07:51.067Z,22.40
2017-08-30T07:10:48.586Z,22.40
2017-08-30T07:13:46.143Z,22.50
2017-08-30T07:16:43.924Z,22.50
2017-08-30T07:19:47.892Z,22.50
2017-08-30T07:22:45.628Z,22.50
2017-08-30T07:25:43.184Z,22.50
2017-08-30T07:28:41.160Z,22.40
2017-08-30T07:31:38.992Z,22.40
2017-08-30T07:34:42.982Z,22.30
2017-08-30T07:37:40.840Z,22.20
2017-08-30T07:40:38.540Z,22.40
2017-08-30T07:43:37.192Z,22.50
2017-08-30T07:46:34.677Z,22.80
2017-08-30T07:49:32.408Z,23.10
2017-08-30T07:52:30.247Z,23.40
2017-08-30T07:55:27.364Z,23.60
2017-08-30T07:58:25.348Z,23.90
2017-08-30T08:01:23.170Z,24.30
2017-08-30T08:04:22.022Z,24.50
2017-08-30T08:07:19.519Z,24.70
2017-08-30T08:10:17.431Z,24.90
2017-08-30T08:13:15.508Z,25.00
2017-08-30T08:16:12.656Z,25.00
2017-08-30T08:19:10.265Z,24.90
2017-08-30T08:22:07.827Z,24.90
2017-08-30T08:25:05.617Z,24.90
2017-08-30T08:28:04.396Z,24.90
2017-08-30T08:31:11.307Z,24.80
2017-08-30T08:34:08.925Z,24.90
2017-08-30T08:37:06.483Z,25.00
2017-08-30T08:40:04.162Z,25.40
2017-08-30T08:43:02.187Z,25.70
2017-08-30T08:46:00.847Z,26.10
2017-08-30T08:48:58.711Z,26.30
2017-08-30T08:51:56.553Z,26.10
2017-08-30T08:54:54.245Z,26.00
2017-08-30T08:57:51.843Z,26.20
2017-08-30T09:00:49.303Z,26.60
2017-08-30T09:03:46.943Z,26.90
2017-08-30T09:06:44.708Z,27.00
2017-08-30T09:09:42.371Z,27.10
2017-08-30T09:12:41.079Z,27.10
2017-08-30T09:15:38.700Z,27.30
2017-08-30T09:18:38.312Z,27.20
2017-08-30T09:21:35.771Z,27.10
2017-08-30T09:24:33.321Z,26.90
2017-08-30T09:27:34.926Z,26.80
2017-08-30T09:30:32.759Z,26.90
2017-08-30T09:36:51.843Z,27.00
2017-08-30T09:39:51.488Z,27.20
2017-08-30T09:42:49.196Z,27.30
2017-08-30T09:45:46.717Z,27.50
2017-08-30T09:48:44.397Z,27.70
2017-08-30T09:51:46.108Z,27.80
2017-08-30T09:54:44.607Z,27.80
2017-08-30T09:57:42.267Z,28.00
2017-08-30T10:00:39.899Z,28.30
2017-08-30T10:03:43.584Z,28.40
2017-08-30T10:06:42.610Z,28.50
2017-08-30T10:09:40.394Z,28.60
2017-08-30T10:12:37.972Z,28.60
2017-08-30T10:15:35.615Z,28.80
2017-08-30T10:18:39.371Z,28.90
2017-08-30T10:21:37.460Z,29.00
2017-08-30T10:24:42.335Z,29.00
2017-08-30T10:27:39.956Z,29.00
2017-08-30T10:30:37.500Z,29.00
2017-08-30T10:33:35.204Z,29.10
2017-08-30T10:36:45.936Z,29.30
2017-08-30T10:39:43.559Z,29.50
2017-08-30T10:42:43.244Z,29.60
2017-08-30T10:45:40.743Z,29.60
2017-08-30T10:48:38.600Z,29.60
2017-08-30T10:51:36.335Z,29.70
2017-08-30T10:54:35.127Z,29.90
2017-08-30T10:57:42.600Z,30.00
2017-08-30T11:00:40.215Z,29.90
2017-08-30T11:03:43.899Z,29.50
2017-08-30T11:06:42.593Z,29.30
2017-08-30T11:09:40.229Z,29.20
2017-08-30T11:12:38.115Z,29.20
2017-08-30T11:15:35.785Z,29.30
2017-08-30T11:18:33.415Z,29.30
2017-08-30T11:21:31.022Z,29.30
2017-08-30T11:24:28.664Z,29.20
2017-08-30T11:27:29.420Z,29.10
2017-08-30T11:30:27.635Z,29.20
2017-08-30T11:33:25.200Z,29.20
2017-08-30T11:36:22.703Z,29.30
2017-08-30T11:39:20.232Z,29.50
2017-08-30T11:42:17.824Z,29.50
2017-08-30T11:45:15.492Z,29.80
2017-08-30T11:48:13.099Z,30.00
2017-08-30T11:51:10.879Z,30.20
2017-08-30T11:54:08.836Z,30.30
2017-08-30T11:57:06.398Z,30.30
2017-08-30T12:00:04.832Z,30.30
2017-08-30T12:03:02.633Z,30.40
2017-08-30T12:06:00.336Z,30.70
2017-08-30T12:08:58.903Z,30.90
2017-08-30T12:12:00.844Z,31.10
2017-08-30T12:14:58.499Z,31.50
2017-08-30T12:17:56.374Z,31.60
2017-08-30T12:20:54.220Z,31.60
2017-08-30T12:23:51.830Z,31.60
2017-08-30T12:26:50.540Z,31.50
2017-08-30T12:29:51.038Z,31.50
2017-08-30T12:32:49.583Z,31.50
2017-08-30T12:35:47.312Z,31.60
2017-08-30T12:38:50.527Z,31.40
2017-08-30T12:41:48.180Z,31.40
2017-08-30T12:44:48.866Z,31.70
2017-08-30T12:47:50.468Z,31.70
2017-08-30T12:50:49.047Z,31.60
2017-08-30T12:53:46.816Z,31.50
2017-08-30T12:56:47.340Z,31.40
2017-08-30T12:59:44.977Z,31.40
2017-08-30T13:02:43.528Z,31.70
2017-08-30T13:05:47.184Z,31.60
2017-08-30T13:08:44.428Z,31.40
2017-08-30T13:11:42.347Z,31.20
2017-08-30T13:14:40.033Z,31.20
2017-08-30T13:17:37.776Z,31.30
2017-08-30T13:20:35.302Z,31.20
2017-08-30T13:23:32.925Z,30.90
2017-08-30T13:26:34.595Z,30.90
2017-08-30T13:29:32.043Z,31.10
2017-08-30T13:32:29.652Z,31.30
2017-08-30T13:35:27.456Z,31.50
2017-08-30T13:38:25.027Z,31.70
2017-08-30T13:41:22.851Z,31.90
2017-08-30T13:44:20.539Z,32.00
2017-08-30T13:47:18.260Z,32.10
2017-08-30T13:50:15.638Z,32.20
2017-08-30T13:53:13.166Z,32.30
2017-08-30T13:56:10.780Z,32.10
2017-08-30T13:59:10.407Z,32.10
2017-08-30T14:02:07.872Z,32.10
2017-08-30T14:05:05.594Z,32.10
2017-08-30T14:08:04.260Z,32.00
2017-08-30T14:11:02.064Z,32.00
2017-08-30T14:14:06.623Z,31.90
2017-08-30T14:17:06.679Z,31.80
2017-08-30T14:20:04.475Z,32.00
2017-08-30T14:23:03.176Z,32.20
2017-08-30T14:26:01.007Z,32.40
2017-08-30T14:29:00.597Z,32.70
2017-08-30T14:31:58.132Z,32.90
2017-08-30T14:34:55.696Z,32.80
2017-08-30T14:37:54.355Z,32.50
2017-08-30T14:40:51.973Z,32.30
2017-08-30T14:43:49.871Z,32.10
2017-08-30T14:46:48.768Z,32.10
2017-08-30T14:49:46.603Z,32.10
2017-08-30T14:52:44.329Z,32.20
2017-08-30T14:55:41.963Z,32.60
2017-08-30T14:58:43.504Z,32.90
2017-08-30T15:01:41.109Z,32.90
2017-08-30T15:04:38.848Z,32.80
2017-08-30T15:07:36.521Z,32.50
2017-08-30T15:10:34.323Z,32.20
2017-08-30T15:13:31.835Z,31.80
2017-08-30T15:16:29.726Z,31.40
2017-08-30T15:19:34.335Z,31.10
2017-08-30T15:22:32.151Z,30.90
2017-08-30T15:25:29.775Z,30.80
2017-08-30T15:28:27.372Z,30.60
2017-08-30T15:31:24.923Z,30.60
2017-08-30T15:34:22.636Z,30.40
2017-08-30T15:37:20.040Z,30.30
2017-08-30T15:40:17.518Z,30.10
2017-08-30T15:43:15.040Z,29.80
2017-08-30T15:46:14.568Z,29.40
2017-08-30T15:49:14.140Z,29.10
2017-08-30T15:52:12.610Z,28.90
2017-08-30T15:55:10.225Z,28.80
2017-08-30T15:58:09.151Z,28.70
2017-08-30T16:01:15.979Z,28.60
2017-08-30T16:04:14.943Z,28.40
2017-08-30T16:07:16.476Z,28.10
2017-08-30T16:10:14.259Z,28.00
2017-08-30T16:13:11.969Z,28.00
2017-08-30T16:16:10.274Z,27.80
2017-08-30T16:19:07.768Z,27.60
2017-08-30T16:22:05.472Z,27.60
2017-08-30T16:25:04.947Z,27.40
2017-08-30T16:28:04.030Z,27.30
2017-08-30T16:31:03.686Z,27.20
2017-08-30T16:34:01.164Z,27.00
2017-08-30T16:37:04.186Z,26.90
2017-08-30T16:40:01.881Z,26.80
2017-08-30T16:43:00.520Z,26.80
2017-08-30T16:45:58.151Z,26.70
2017-08-30T16:48:59.072Z,26.80
2017-08-30T16:51:56.843Z,26.70
2017-08-30T16:54:55.376Z,26.70
2017-08-30T16:57:53.081Z,26.70
2017-08-30T17:00:50.973Z,26.60
2017-08-30T17:03:49.560Z,26.60
2017-08-30T17:06:47.280Z,26.60
2017-08-30T17:09:45.369Z,26.60
2017-08-30T17:12:43.084Z,26.60
2017-08-30T17:15:41.751Z,26.60
2017-08-30T17:18:39.370Z,26.60
2017-08-30T17:21:39.135Z,26.60
2017-08-30T17:24:36.548Z,26.50
2017-08-30T17:27:36.289Z,26.40
2017-08-30T17:30:35.840Z,26.40
2017-08-30T17:33:33.468Z,26.30
2017-08-30T17:36:36.121Z,26.20
2017-08-30T17:39:47.842Z,26.10
2017-08-30T17:42:52.507Z,26.10
2017-08-30T17:45:50.432Z,26.00
2017-08-30T17:48:59.063Z,26.00
2017-08-30T17:51:56.744Z,25.90
2017-08-30T17:55:00.109Z,25.90
2017-08-30T17:57:57.807Z,25.80
2017-08-30T18:00:55.356Z,25.80
2017-08-30T18:03:53.071Z,25.70
2017-08-30T18:06:50.836Z,25.70
2017-08-30T18:09:48.827Z,25.60
2017-08-30T18:12:46.914Z,25.50
2017-08-30T18:15:44.535Z,25.40
2017-08-30T18:18:41.792Z,25.40
2017-08-30T18:21:40.660Z,25.30
2017-08-30T18:24:40.168Z,25.20
2017-08-30T18:27:38.937Z,25.00
2017-08-30T18:30:36.485Z,24.80
2017-08-30T18:33:37.979Z,24.80
2017-08-30T18:36:36.555Z,24.60
2017-08-30T18:39:41.108Z,24.40
2017-08-30T18:42:38.847Z,24.20
2017-08-30T18:45:38.204Z,24.10
2017-08-30T18:48:35.708Z,24.10
2017-08-30T18:51:33.459Z,24.10
2017-08-30T18:54:31.216Z,24.20
2017-08-30T18:57:41.511Z,24.30
2017-08-30T19:00:42.198Z,24.30
2017-08-30T19:03:39.861Z,24.20
2017-08-30T19:06:37.375Z,24.20
2017-08-30T19:09:34.860Z,24.10
2017-08-30T19:12:33.440Z,24.00
2017-08-30T19:15:31.116Z,23.70
2017-08-30T19:18:28.812Z,23.40
2017-08-30T19:21:34.524Z,23.20
2017-08-30T19:24:34.934Z,23.00
2017-08-30T19:27:33.092Z,22.90
2017-08-30T19:30:30.676Z,22.80
2017-08-30T19:33:28.400Z,22.80
2017-08-30T19:36:29.004Z,22.60
2017-08-30T19:39:27.768Z,22.50
2017-08-30T19:42:25.224Z,22.30
2017-08-30T19:45:22.894Z,22.20
2017-08-30T19:48:23.191Z,22.10
2017-08-30T19:51:21.790Z,22.00
2017-08-30T19:54:19.318Z,21.90
2017-08-30T19:57:31.479Z,21.80
2017-08-30T20:00:31.097Z,21.80
2017-08-30T20:03:30.885Z,21.70
2017-08-30T20:06:28.380Z,21.70
2017-08-30T20:09:25.773Z,21.70
2017-08-30T20:12:23.497Z,21.70
2017-08-30T20:15:21.088Z,21.60
2017-08-30T20:18:18.750Z,21.50
2017-08-30T20:21:16.575Z,21.30
2017-08-30T20:24:14.228Z,21.10
2017-08-30T20:27:12.077Z,20.90
2017-08-30T20:30:09.548Z,20.70
2017-08-30T20:33:07.012Z,20.60
2017-08-30T20:36:04.909Z,20.50
2017-08-30T20:39:05.575Z,20.40
2017-08-30T20:42:03.099Z,20.40
2017-08-30T20:45:00.709Z,20.30
2017-08-30T20:48:00.347Z,20.20
2017-08-30T20:51:05.125Z,20.20
2017-08-30T20:54:02.250Z,20.10
2017-08-30T20:57:02.830Z,20.10
2017-08-30T21:00:01.664Z,20.00
2017-08-30T21:02:59.319Z,20.00
2017-08-30T21:05:58.207Z,20.00
2017-08-30T21:08:55.800Z,19.90
2017-08-30T21:11:53.873Z,19.90
2017-08-30T21:14:51.491Z,19.90
2017-08-30T21:17:49.063Z,19.90
2017-08-30T21:20:46.936Z,19.90
2017-08-30T21:23:44.556Z,19.90
2017-08-30T21:26:48.468Z,19.90
2017-08-30T21:29:46.115Z,19.90
2017-08-30T21:32:43.867Z,19.80
2017-08-30T21:35:42.420Z,19.70
2017-08-30T21:38:39.973Z,19.70
2017-08-30T21:41:37.415Z,19.70
2017-08-30T21:44:35.203Z,19.70
2017-08-30T21:47:32.908Z,19.60
2017-08-30T21:50:30.353Z,19.50
2017-08-30T21:53:27.947Z,19.50
2017-08-30T21:56:25.446Z,19.40
2017-08-30T21:59:22.986Z,19.30
2017-08-30T22:02:20.529Z,19.30
2017-08-30T22:05:18.156Z,19.30
2017-08-30T22:08:15.785Z,19.40
2017-08-30T22:11:13.280Z,19.50
2017-08-30T22:14:10.916Z,19.40
2017-08-30T22:17:08.454Z,19.40
2017-08-30T22:20:06.064Z,19.40
2017-08-30T22:23:05.965Z,19.50
2017-08-30T22:26:04.848Z,19.50
2017-08-30T22:29:05.600Z,19.60
2017-08-30T22:32:03.110Z,19.60
2017-08-30T22:35:03.820Z,19.60
2017-08-30T22:38:01.411Z,19.60
2017-08-30T22:40:59.140Z,19.50
2017-08-30T22:43:58.856Z,19.50
2017-08-30T22:46:56.671Z,19.60
2017-08-30T22:50:00.352Z,19.50
2017-08-30T22:52:58.288Z,19.50
2017-08-30T22:55:55.864Z,19.50
2017-08-30T22:58:53.576Z,19.50
2017-08-30T23:01:51.233Z,19.50
2017-08-30T23:04:48.893Z,19.50
2017-08-30T23:07:57.524Z,19.40
2017-08-30T23:10:55.108Z,19.40
2017-08-30T23:13:52.588Z,19.40
2017-08-30T23:16:51.536Z,19.30
2017-08-30T23:19:49.563Z,19.20
2017-08-30T23:22:46.736Z,19.20
2017-08-30T23:25:52.472Z,19.20
2017-08-30T23:28:50.415Z,19.20
2017-08-30T23:31:48.308Z,19.20
2017-08-30T23:34:47.212Z,19.20
2017-08-30T23:37:46.025Z,19.20
2017-08-30T23:40:44.168Z,19.20
2017-08-30T23:43:43.393Z,19.20
2017-08-30T23:46:41.308Z,19.00
2017-08-30T23:49:39.067Z,19.00
2017-08-30T23:52:36.889Z,19.00
2017-08-30T23:55:34.448Z,19.00
2017-08-30T23:58:32.208Z,19.00
